Time;durP1;ratioP1;P1;durP2;ratioP2;P2;SDS_P1;SDS_P2;PMS_P1;PMS_P2;Temp;Humidity;BMP_temperature;BMP_pressure;BME280_temperature;BME280_humidity;BME280_pressure;Samples;Min_cycle;Max_cycle;Signal;HPM_P1;HPM_P2
2023/07/27 00:00:50;;;;;;;;;;;;;;;13.27;45.39;95219.75;5020341;28;19936;-78
2023/07/27 00:03:15;;;;;;;;;;;;;;;13.18;45.65;95217.28;5019392;28;20512;-77
2023/07/27 00:05:41;;;;;;;;;;;;;;;13.13;45.82;95222.38;5019420;28;19929;-77
2023/07/27 00:08:06;;;;;;;;;;;;;;;13.18;45.69;95213.75;5019813;28;19921;-78
2023/07/27 00:10:31;;;;;;;;;;;;;;;13.17;45.87;95210.28;5017617;28;19924;-78
2023/07/27 00:12:56;;;;;;;;;;;;;;;13.11;46.87;95213.75;5021498;28;19932;-78
2023/07/27 00:15:22;;;;;;;;;;;;;;;12.99;46.93;95213.53;5020342;28;21175;-78
2023/07/27 00:17:47;;;;;;;;;;;;;;;12.99;46.70;95210.03;5016987;28;19929;-78
2023/07/27 00:20:12;;;;;;;;;;;;;;;13.06;46.37;95205.56;5020145;28;20011;-78
2023/07/27 00:22:37;;;;;;;;;;;;;;;13.09;46.38;95204.31;5020315;28;19921;-79
2023/07/27 00:25:03;;;;;;;;;;;;;;;13.08;46.36;95206.16;5018244;28;19921;-79
2023/07/27 00:27:28;;;;;;;;;;;;;;;13.09;46.41;95206.97;5020162;28;19923;-79
2023/07/27 00:29:54;;;;;;;;;;;;;;;13.10;46.64;95197.94;5038108;28;19928;-79
2023/07/27 00:32:19;;;;;;;;;;;;;;;13.13;46.33;95195.66;5013012;28;20378;-79
2023/07/27 00:34:44;;;;;;;;;;;;;;;13.06;47.23;95192.19;5001975;28;19928;-79
2023/07/27 00:37:09;;;;;;;;;;;;;;;13.11;46.52;95197.72;5017725;28;20142;-79
2023/07/27 00:39:35;;;;;;;;;;;;;;;13.07;47.14;95191.16;5021470;28;20332;-79
2023/07/27 00:42:00;;;;;;;;;;;;;;;13.12;46.33;95191.34;5019578;28;19921;-79
2023/07/27 00:44:25;;;;;;;;;;;;;;;13.13;46.79;95182.28;5023450;28;19921;-78
2023/07/27 00:46:51;;;;;;;;;;;;;;;13.18;46.06;95185.19;5024778;28;19921;-79
2023/07/27 00:49:16;;;;;;;;;;;;;;;13.18;46.06;95182.53;5023422;28;19967;-79
2023/07/27 00:51:42;;;;;;;;;;;;;;;13.20;46.89;95174.31;5022508;28;19975;-80
2023/07/27 00:54:07;;;;;;;;;;;;;;;13.22;46.47;95166.88;5020517;28;20554;-79
2023/07/27 00:56:33;;;;;;;;;;;;;;;13.29;45.45;95167.72;5006599;28;19924;-79
2023/07/27 00:59:01;;;;;;;;;;;;;;;13.29;46.46;95164.22;5006187;28;20015;-79
2023/07/27 01:01:26;;;;;;;;;;;;;;;13.28;45.45;95157.22;5023648;28;20024;-78
2023/07/27 01:03:52;;;;;;;;;;;;;;;13.24;45.95;95158.66;5022346;28;20008;-79
2023/07/27 01:06:17;;;;;;;;;;;;;;;13.27;46.81;95156.41;5004971;28;19929;-79
2023/07/27 01:08:43;;;;;;;;;;;;;;;13.23;47.30;95149.84;5023125;28;19921;-79
2023/07/27 01:11:15;;;;;;;;;;;;;;;13.21;46.70;95148.38;5022580;28;19921;-80
2023/07/27 01:13:41;;;;;;;;;;;;;;;13.33;45.48;95143.25;5021175;28;19925;-80
2023/07/27 01:16:12;;;;;;;;;;;;;;;13.27;46.45;95136.88;5022749;28;20067;-80
2023/07/27 01:18:37;;;;;;;;;;;;;;;13.27;46.05;95127.03;5019327;28;20679;-79
2023/07/27 01:21:14;;;;;;;;;;;;;;;13.26;46.43;95135.25;5019669;28;19921;-79
2023/07/27 01:23:49;;;;;;;;;;;;;;;13.20;45.97;95130.72;5021598;28;20012;-80
2023/07/27 01:26:26;;;;;;;;;;;;;;;13.04;46.31;95122.91;5018989;28;19925;-79
2023/07/27 01:28:58;;;;;;;;;;;;;;;13.13;46.25;95120.84;5023206;28;19925;-79
2023/07/27 01:31:23;;;;;;;;;;;;;;;13.05;46.83;95119.22;5022236;28;19917;-80
2023/07/27 01:33:50;;;;;;;;;;;;;;;13.11;46.58;95117.56;5022110;28;20187;-80
2023/07/27 01:36:22;;;;;;;;;;;;;;;13.17;46.65;95116.75;5022753;28;20586;-80
2023/07/27 01:38:47;;;;;;;;;;;;;;;13.17;46.24;95114.06;5005231;28;19921;-79
2023/07/27 01:41:12;;;;;;;;;;;;;;;13.23;46.26;95119.59;5021327;28;19921;-79
2023/07/27 01:43:38;;;;;;;;;;;;;;;13.24;46.06;95116.72;5020107;28;20520;-79
2023/07/27 01:46:04;;;;;;;;;;;;;;;13.21;45.60;95116.31;5021817;28;19924;-79
2023/07/27 01:48:30;;;;;;;;;;;;;;;13.13;46.42;95112.00;5023497;28;20281;-78
2023/07/27 01:50:55;;;;;;;;;;;;;;;13.13;46.54;95110.16;5005181;28;19975;-78
2023/07/27 01:53:21;;;;;;;;;;;;;;;13.06;46.55;95112.03;5004721;28;19925;-78
2023/07/27 01:55:46;;;;;;;;;;;;;;;13.10;46.23;95104.41;5022404;28;19925;-78
2023/07/27 01:58:11;;;;;;;;;;;;;;;13.06;46.66;95104.00;5022116;28;19921;-78
2023/07/27 02:00:36;;;;;;;;;;;;;;;13.02;46.75;95098.22;5005361;28;20646;-78
2023/07/27 02:03:02;;;;;;;;;;;;;;;13.03;46.73;95097.19;5021569;28;20077;-79
2023/07/27 02:05:27;;;;;;;;;;;;;;;12.98;46.26;95096.16;5037355;28;19926;-78
2023/07/27 02:07:52;;;;;;;;;;;;;;;12.87;46.75;95102.94;5022003;28;19920;-79
2023/07/27 02:10:18;;;;;;;;;;;;;;;12.83;46.90;95089.19;5038555;28;20012;-79
2023/07/27 02:12:50;;;;;;;;;;;;;;;12.86;46.85;95088.78;5005934;28;19917;-79
2023/07/27 02:15:22;;;;;;;;;;;;;;;12.98;46.11;95080.16;5023911;28;19921;-79
2023/07/27 02:17:48;;;;;;;;;;;;;;;13.02;46.21;95090.22;5018277;28;19925;-79
2023/07/27 02:20:14;;;;;;;;;;;;;;;13.02;46.21;95076.06;5032007;28;19974;-79
2023/07/27 02:22:42;;;;;;;;;;;;;;;13.14;45.54;95078.91;5021093;28;20514;-79
2023/07/27 02:25:07;;;;;;;;;;;;;;;13.15;45.71;95073.34;5021086;28;19917;-79
2023/07/27 02:27:33;;;;;;;;;;;;;;;13.18;45.52;95067.59;5023030;28;19913;-80
2023/07/27 02:29:59;;;;;;;;;;;;;;;13.19;45.38;95065.72;5036931;28;19973;-80
2023/07/27 02:32:24;;;;;;;;;;;;;;;13.24;45.48;95073.97;5020959;28;19924;-80
2023/07/27 02:34:49;;;;;;;;;;;;;;;13.23;45.19;95061.63;5021702;28;19925;-80
2023/07/27 02:37:15;;;;;;;;;;;;;;;13.04;45.96;95064.13;5021197;28;19913;-80
2023/07/27 02:39:40;;;;;;;;;;;;;;;13.27;45.45;95059.34;5020350;28;19925;-80
2023/07/27 02:42:05;;;;;;;;;;;;;;;13.16;45.49;95061.63;5020297;28;20774;-80
2023/07/27 02:44:30;;;;;;;;;;;;;;;13.16;45.51;95055.47;5020657;28;19921;-80
2023/07/27 02:46:56;;;;;;;;;;;;;;;13.05;45.91;95052.41;5021956;28;19928;-80
2023/07/27 02:49:21;;;;;;;;;;;;;;;13.12;45.84;95060.41;5021594;28;19921;-78
2023/07/27 02:51:46;;;;;;;;;;;;;;;13.19;45.62;95049.69;5004121;28;20306;-80
2023/07/27 02:54:11;;;;;;;;;;;;;;;13.14;45.57;95052.19;5022206;28;19925;-80
2023/07/27 02:56:37;;;;;;;;;;;;;;;13.24;45.42;95044.56;5022266;28;19921;-80
2023/07/27 02:59:02;;;;;;;;;;;;;;;13.22;45.71;95043.13;5019554;28;19979;-80
2023/07/27 03:01:27;;;;;;;;;;;;;;;13.21;45.62;95042.31;5021044;28;19929;-80
2023/07/27 03:03:52;;;;;;;;;;;;;;;13.28;45.09;95047.63;5021558;28;19924;-80
2023/07/27 03:06:18;;;;;;;;;;;;;;;13.31;44.89;95047.22;5002992;28;20008;-80
2023/07/27 03:08:43;;;;;;;;;;;;;;;13.34;45.35;95040.63;5021448;28;19921;-80
2023/07/27 03:11:08;;;;;;;;;;;;;;;13.35;45.11;95037.75;5020777;28;19925;-80
2023/07/27 03:13:33;;;;;;;;;;;;;;;13.34;45.38;95033.44;5019607;28;20554;-80
2023/07/27 03:16:01;;;;;;;;;;;;;;;13.46;44.71;95032.78;5003936;28;19921;-80
2023/07/27 03:18:27;;;;;;;;;;;;;;;13.51;44.57;95031.13;5018308;28;20019;-80
2023/07/27 03:20:52;;;;;;;;;;;;;;;13.66;43.86;95038.03;5021498;28;20018;-79
2023/07/27 03:23:17;;;;;;;;;;;;;;;13.59;44.44;95027.38;5020829;28;19929;-80
2023/07/27 03:25:43;;;;;;;;;;;;;;;13.67;44.17;95027.13;5021471;28;19921;-80
2023/07/27 03:28:08;;;;;;;;;;;;;;;13.73;44.07;95035.38;5003697;28;20546;-80
2023/07/27 03:30:33;;;;;;;;;;;;;;;13.81;43.76;95032.44;5020331;28;20748;-80
2023/07/27 03:32:59;;;;;;;;;;;;;;;13.87;43.60;95036.94;5019887;28;19940;-80
2023/07/27 03:35:24;;;;;;;;;;;;;;;13.56;44.32;95031.31;5019406;28;19924;-80
2023/07/27 03:37:50;;;;;;;;;;;;;;;13.78;43.87;95033.69;5020394;28;19944;-80
2023/07/27 03:40:15;;;;;;;;;;;;;;;13.76;43.90;95029.56;5020945;28;19921;-80
2023/07/27 03:42:40;;;;;;;;;;;;;;;13.33;44.38;95028.31;5020587;28;19921;-80
2023/07/27 03:45:06;;;;;;;;;;;;;;;13.49;44.89;95032.38;5019466;28;19925;-80
2023/07/27 03:47:31;;;;;;;;;;;;;;;13.78;44.13;95022.16;5019304;28;19932;-80
2023/07/27 03:49:56;;;;;;;;;;;;;;;13.66;44.25;95030.03;5003369;28;19917;-80
2023/07/27 03:52:21;;;;;;;;;;;;;;;13.47;44.54;95023.72;5019725;28;20007;-79
2023/07/27 03:54:47;;;;;;;;;;;;;;;13.48;44.76;95014.66;5001003;28;19973;-80
2023/07/27 03:57:12;;;;;;;;;;;;;;;13.53;44.55;95017.53;5020020;28;20409;-80
2023/07/27 03:59:37;;;;;;;;;;;;;;;13.56;44.52;95022.44;5021348;28;19921;-80
2023/07/27 04:02:03;;;;;;;;;;;;;;;13.44;44.71;95015.09;5018232;28;20007;-80
2023/07/27 04:04:28;;;;;;;;;;;;;;;13.46;44.70;95006.06;5019465;28;19922;-80
2023/07/27 04:06:53;;;;;;;;;;;;;;;13.56;44.40;95009.06;5018930;28;19921;-80
2023/07/27 04:09:18;;;;;;;;;;;;;;;13.64;44.41;95002.69;5001914;28;19928;-80
2023/07/27 04:11:44;;;;;;;;;;;;;;;13.66;44.29;95011.31;5021698;28;19933;-79
2023/07/27 04:14:09;;;;;;;;;;;;;;;13.66;44.38;95000.59;5018956;28;20358;-79
2023/07/27 04:16:36;;;;;;;;;;;;;;;13.65;44.76;94998.97;5019566;28;19948;-79
2023/07/27 04:19:01;;;;;;;;;;;;;;;13.64;44.25;95000.84;5009083;28;20000;-80
2023/07/27 04:21:26;;;;;;;;;;;;;;;13.57;44.72;94995.50;5002640;28;20000;-80
2023/07/27 04:23:51;;;;;;;;;;;;;;;13.70;44.22;94991.94;5020660;28;19936;-80
2023/07/27 04:26:17;;;;;;;;;;;;;;;13.75;44.03;94991.31;5019336;28;20844;-80
2023/07/27 04:28:42;;;;;;;;;;;;;;;13.75;44.61;94993.16;5018853;28;20569;-79
2023/07/27 04:31:07;;;;;;;;;;;;;;;13.76;44.81;94995.63;5035505;28;20305;-80
2023/07/27 04:33:33;;;;;;;;;;;;;;;13.75;45.16;94990.47;5020844;28;19928;-79
2023/07/27 04:36:01;;;;;;;;;;;;;;;13.66;45.04;94988.06;5021268;28;19924;-80
2023/07/27 04:38:26;;;;;;;;;;;;;;;13.72;44.62;94982.88;5019190;28;19917;-80
2023/07/27 04:40:52;;;;;;;;;;;;;;;13.64;45.22;94987.47;5003112;28;19924;-80
2023/07/27 04:43:17;;;;;;;;;;;;;;;13.79;44.81;94978.31;5020916;28;19933;-79
2023/07/27 04:45:43;;;;;;;;;;;;;;;13.94;43.82;94980.75;5016820;28;20177;-79
2023/07/27 04:48:08;;;;;;;;;;;;;;;13.76;45.01;94974.22;5021152;28;20293;-79
2023/07/27 04:50:34;;;;;;;;;;;;;;;13.65;45.65;94975.72;5018957;28;19976;-79
2023/07/27 04:52:59;;;;;;;;;;;;;;;13.72;45.51;94967.66;5021414;28;20016;-79
2023/07/27 04:55:24;;;;;;;;;;;;;;;13.78;44.74;94960.63;5021237;28;20326;-80
2023/07/27 04:57:49;;;;;;;;;;;;;;;13.85;45.00;94961.44;5021616;28;20023;-80
2023/07/27 05:00:15;;;;;;;;;;;;;;;13.96;45.45;94959.94;5021370;28;19991;-79
2023/07/27 05:02:40;;;;;;;;;;;;;;;13.90;44.78;94956.28;5019788;28;19967;-80
2023/07/27 05:05:05;;;;;;;;;;;;;;;13.89;45.52;94957.31;5021732;28;20004;-80
2023/07/27 05:07:30;;;;;;;;;;;;;;;13.98;44.32;94949.03;5002530;28;20242;-80
2023/07/27 05:09:56;;;;;;;;;;;;;;;13.99;45.31;94951.50;5019148;28;19917;-80
2023/07/27 05:12:21;;;;;;;;;;;;;;;13.92;45.14;94948.03;5022203;28;19921;-80
2023/07/27 05:14:46;;;;;;;;;;;;;;;13.93;44.30;94945.13;5019498;28;19917;-80
2023/07/27 05:17:11;;;;;;;;;;;;;;;13.88;44.44;94950.31;5020843;28;19917;-80
2023/07/27 05:19:37;;;;;;;;;;;;;;;13.94;45.91;94944.09;5016761;28;20551;-79
2023/07/27 05:22:02;;;;;;;;;;;;;;;13.79;45.09;94936.34;5019211;28;19921;-80
2023/07/27 05:24:27;;;;;;;;;;;;;;;13.78;46.39;94923.19;5020213;28;19921;-80
2023/07/27 05:26:52;;;;;;;;;;;;;;;13.70;45.68;94926.91;5002722;28;20534;-80
2023/07/27 05:29:18;;;;;;;;;;;;;;;13.80;45.27;94921.09;5037953;28;19970;-80
2023/07/27 05:31:46;;;;;;;;;;;;;;;13.91;44.85;94925.00;5006898;28;19959;-80
2023/07/27 05:34:11;;;;;;;;;;;;;;;13.73;47.05;94925.69;5024663;28;19921;-81
2023/07/27 05:36:37;;;;;;;;;;;;;;;13.70;44.83;94921.56;5023462;28;20433;-80
2023/07/27 05:39:03;;;;;;;;;;;;;;;13.66;46.15;94915.84;5022512;28;19921;-80
2023/07/27 05:41:28;;;;;;;;;;;;;;;13.79;46.82;94920.31;5024270;28;19957;-81
2023/07/27 05:43:53;;;;;;;;;;;;;;;13.74;46.02;94924.66;5024773;28;19921;-80
2023/07/27 05:46:18;;;;;;;;;;;;;;;13.69;45.29;94917.25;5016530;28;19921;-81
2023/07/27 05:48:44;;;;;;;;;;;;;;;13.82;46.82;94909.19;5023469;28;19929;-81
2023/07/27 05:51:09;;;;;;;;;;;;;;;13.80;46.95;94907.72;5022679;28;20495;-81
2023/07/27 05:53:34;;;;;;;;;;;;;;;13.66;47.61;94912.34;5020289;28;19925;-81
2023/07/27 05:56:00;;;;;;;;;;;;;;;13.66;45.85;94899.81;5022333;28;20004;-80
2023/07/27 05:58:25;;;;;;;;;;;;;;;13.66;45.75;94902.47;5006197;28;19921;-80
2023/07/27 06:00:50;;;;;;;;;;;;;;;13.68;47.00;94900.41;5022180;28;19925;-81
2023/07/27 06:03:15;;;;;;;;;;;;;;;13.56;48.04;94888.75;5022946;28;19921;-80
2023/07/27 06:05:44;;;;;;;;;;;;;;;13.34;48.67;94897.09;5023451;28;19983;-81
2023/07/27 06:08:09;;;;;;;;;;;;;;;13.22;48.05;94896.94;5024432;28;19914;-80
2023/07/27 06:10:34;;;;;;;;;;;;;;;13.34;46.88;94898.94;5022610;28;19917;-80
2023/07/27 06:13:00;;;;;;;;;;;;;;;13.73;48.29;94898.94;5024565;28;19918;-80
2023/07/27 06:15:25;;;;;;;;;;;;;;;13.71;46.68;94899.16;5023407;28;19979;-80
2023/07/27 06:17:50;;;;;;;;;;;;;;;13.69;47.07;94894.03;5002463;28;19921;-80
2023/07/27 06:20:15;;;;;;;;;;;;;;;13.74;46.83;94890.72;5005205;28;20655;-80
2023/07/27 06:22:41;;;;;;;;;;;;;;;13.82;47.54;94886.94;5020782;28;19952;-80
2023/07/27 06:25:06;;;;;;;;;;;;;;;13.82;46.01;94884.25;5022128;28;19932;-79
2023/07/27 06:27:31;;;;;;;;;;;;;;;13.83;45.51;94886.72;5024326;28;19921;-80
2023/07/27 06:29:56;;;;;;;;;;;;;;;13.87;46.43;94876.41;5005085;28;19995;-80
2023/07/27 06:32:22;;;;;;;;;;;;;;;13.90;47.02;94878.69;5022856;28;19925;-80
2023/07/27 06:34:47;;;;;;;;;;;;;;;13.82;47.73;94884.25;5038040;28;19921;-80
2023/07/27 06:37:12;;;;;;;;;;;;;;;13.70;47.30;94873.44;5020405;28;19921;-80
2023/07/27 06:39:38;;;;;;;;;;;;;;;13.47;47.35;94874.00;5021568;28;19925;-80
2023/07/27 06:42:03;;;;;;;;;;;;;;;13.64;47.51;94877.81;5021659;28;20043;-80
2023/07/27 06:44:28;;;;;;;;;;;;;;;13.54;49.32;94869.44;5019185;28;19921;-80
2023/07/27 06:46:53;;;;;;;;;;;;;;;13.62;49.03;94874.53;5015912;28;20539;-80
2023/07/27 06:49:19;;;;;;;;;;;;;;;12.86;50.79;94875.06;5022935;28;19913;-71
2023/07/27 06:51:44;;;;;;;;;;;;;;;13.16;50.14;94863.88;5020355;28;19951;-71
2023/07/27 06:54:09;;;;;;;;;;;;;;;13.07;49.23;94865.16;5018718;28;20416;-71
2023/07/27 06:56:34;;;;;;;;;;;;;;;13.34;49.44;94857.00;5018629;28;19947;-72
2023/07/27 06:59:00;;;;;;;;;;;;;;;13.33;48.62;94852.69;5021505;28;19925;-71
2023/07/27 07:01:25;;;;;;;;;;;;;;;13.49;48.31;94853.22;5020808;28;20003;-71
2023/07/27 07:03:50;;;;;;;;;;;;;;;13.46;49.43;94840.28;5017068;28;19925;-69
2023/07/27 07:06:15;;;;;;;;;;;;;;;13.39;48.14;94840.31;5018155;28;19925;-72
2023/07/27 07:08:40;;;;;;;;;;;;;;;13.73;49.01;94840.09;5015855;28;19925;-71
2023/07/27 07:11:06;;;;;;;;;;;;;;;13.65;48.89;94839.31;5021367;28;20372;-70
2023/07/27 07:13:31;;;;;;;;;;;;;;;13.64;48.72;94829.69;5021252;28;20290;-70
2023/07/27 07:15:56;;;;;;;;;;;;;;;13.63;48.66;94827.22;5019675;28;19983;-72
2023/07/27 07:18:21;;;;;;;;;;;;;;;13.37;50.58;94831.69;5013469;28;19927;-71
2023/07/27 07:20:47;;;;;;;;;;;;;;;13.48;50.70;94830.19;5017602;28;20452;-71
2023/07/27 07:23:12;;;;;;;;;;;;;;;13.48;49.82;94828.34;5018293;28;20047;-70
2023/07/27 07:25:40;;;;;;;;;;;;;;;13.27;51.53;94822.28;5016672;28;21771;-71
2023/07/27 07:28:05;;;;;;;;;;;;;;;12.97;51.25;94813.97;5016997;28;19921;-70
2023/07/27 07:30:32;;;;;;;;;;;;;;;12.24;54.04;94820.16;5015731;28;20377;-70
2023/07/27 07:32:57;;;;;;;;;;;;;;;12.61;52.99;94819.66;5020502;28;19925;-70
2023/07/27 07:35:22;;;;;;;;;;;;;;;12.31;54.54;94827.34;5017886;28;20412;-71
2023/07/27 07:37:48;;;;;;;;;;;;;;;12.93;52.34;94816.28;5015989;28;19929;-71
2023/07/27 07:40:13;;;;;;;;;;;;;;;12.65;53.25;94815.53;5020598;28;20020;-70
2023/07/27 07:42:38;;;;;;;;;;;;;;;12.64;53.88;94813.09;5020355;28;19925;-70
2023/07/27 07:45:04;;;;;;;;;;;;;;;13.40;51.60;94816.03;5020664;28;20000;-70
2023/07/27 07:47:29;;;;;;;;;;;;;;;13.52;51.95;94818.00;5018919;28;19917;-71
2023/07/27 07:49:54;;;;;;;;;;;;;;;13.69;50.99;94803.09;5020648;28;19983;-71
2023/07/27 07:52:20;;;;;;;;;;;;;;;13.43;50.03;94802.22;5020154;28;19974;-70
2023/07/27 07:54:45;;;;;;;;;;;;;;;12.83;53.84;94795.34;5020164;28;20472;-71
2023/07/27 07:57:10;;;;;;;;;;;;;;;13.29;52.87;94798.84;5020950;28;20027;-71
2023/07/27 07:59:35;;;;;;;;;;;;;;;12.25;55.76;94792.47;5020275;28;20617;-71
2023/07/27 08:02:01;;;;;;;;;;;;;;;13.00;53.75;94773.53;5018183;28;19925;-69
2023/07/27 08:04:27;;;;;;;;;;;;;;;13.42;52.71;94787.25;5019068;28;20011;-71
2023/07/27 08:06:52;;;;;;;;;;;;;;;13.49;52.68;94783.72;5020392;28;19935;-71
2023/07/27 08:09:18;;;;;;;;;;;;;;;13.60;52.03;94774.97;5019707;28;20011;-71
2023/07/27 08:11:43;;;;;;;;;;;;;;;13.53;52.24;94776.88;5019347;28;19967;-69
2023/07/27 08:14:09;;;;;;;;;;;;;;;13.58;50.18;94777.03;5017016;28;19922;-71
2023/07/27 08:16:34;;;;;;;;;;;;;;;13.55;52.30;94785.50;5018544;28;19928;-70
2023/07/27 08:19:00;;;;;;;;;;;;;;;11.89;57.50;94770.53;5017541;28;19925;-70
2023/07/27 08:21:25;;;;;;;;;;;;;;;11.53;57.74;94771.81;5018352;28;20118;-71
2023/07/27 08:23:53;;;;;;;;;;;;;;;11.75;58.17;94771.56;5019647;28;19940;-71
2023/07/27 08:26:18;;;;;;;;;;;;;;;12.96;54.62;94775.78;5017155;28;20370;-70
2023/07/27 08:28:45;;;;;;;;;;;;;;;11.68;58.31;94782.25;5017508;28;19932;-70
2023/07/27 08:31:11;;;;;;;;;;;;;;;11.57;57.91;94766.88;5016227;28;19921;-71
2023/07/27 08:33:36;;;;;;;;;;;;;;;11.51;58.13;94781.84;5019760;28;20578;-70
2023/07/27 08:36:02;;;;;;;;;;;;;;;12.34;57.30;94773.56;5018246;28;20503;-71
2023/07/27 08:38:27;;;;;;;;;;;;;;;12.61;55.47;94768.13;5018648;28;19974;-70
2023/07/27 08:40:55;;;;;;;;;;;;;;;11.73;58.31;94768.31;5018480;28;19933;-71
2023/07/27 08:43:21;;;;;;;;;;;;;;;12.81;55.20;94770.69;5014101;28;19959;-70
2023/07/27 08:45:46;;;;;;;;;;;;;;;11.67;58.63;94783.28;5012425;28;20011;-71
2023/07/27 08:48:11;;;;;;;;;;;;;;;12.05;58.38;94768.47;5018783;28;20345;-72
2023/07/27 08:50:36;;;;;;;;;;;;;;;11.59;59.66;94764.84;5019034;28;20015;-70
2023/07/27 08:53:02;;;;;;;;;;;;;;;11.50;59.65;94766.88;5017399;28;20059;-70
2023/07/27 08:55:27;;;;;;;;;;;;;;;12.34;57.32;94760.22;5014874;28;19960;-70
2023/07/27 08:57:52;;;;;;;;;;;;;;;12.33;57.38;94754.06;5016392;28;19925;-71
2023/07/27 09:00:18;;;;;;;;;;;;;;;12.22;57.76;94752.88;5016565;28;19972;-71
2023/07/27 09:02:43;;;;;;;;;;;;;;;11.58;60.05;94752.50;5014852;28;20595;-72
2023/07/27 09:05:09;;;;;;;;;;;;;;;12.31;57.31;94749.97;5019684;28;20560;-70
2023/07/27 09:07:34;;;;;;;;;;;;;;;11.15;61.37;94746.53;5021020;28;19955;-71
2023/07/27 09:09:59;;;;;;;;;;;;;;;12.49;57.39;94743.94;5022538;28;20465;-71
2023/07/27 09:12:26;;;;;;;;;;;;;;;12.88;56.56;94744.78;5037901;28;19968;-71
2023/07/27 09:14:52;;;;;;;;;;;;;;;12.56;57.22;94734.06;5022493;28;19925;-72
2023/07/27 09:17:17;;;;;;;;;;;;;;;12.73;57.05;94737.06;5023455;28;20382;-71
2023/07/27 09:19:42;;;;;;;;;;;;;;;13.36;55.15;94736.50;5022078;28;19929;-71
2023/07/27 09:22:08;;;;;;;;;;;;;;;12.82;56.31;94751.00;5021759;28;20020;-71
2023/07/27 09:24:33;;;;;;;;;;;;;;;13.11;55.98;94740.78;5022415;28;19925;-71
2023/07/27 09:26:58;;;;;;;;;;;;;;;13.33;55.25;94739.59;5022837;28;19920;-72
2023/07/27 09:29:24;;;;;;;;;;;;;;;13.09;56.09;94758.06;5021036;28;19921;-71
2023/07/27 09:31:50;;;;;;;;;;;;;;;11.54;61.39;94741.44;5023433;28;19917;-70
2023/07/27 09:34:15;;;;;;;;;;;;;;;11.94;60.61;94735.25;5022059;28;20139;-70
2023/07/27 09:36:41;;;;;;;;;;;;;;;12.25;59.68;94736.44;5023035;28;20399;-71
2023/07/27 09:39:06;;;;;;;;;;;;;;;12.97;56.71;94726.66;5021242;28;20366;-70
2023/07/27 09:41:31;;;;;;;;;;;;;;;13.62;55.34;94737.31;5021483;28;19951;-72
2023/07/27 09:43:58;;;;;;;;;;;;;;;12.91;56.49;94739.00;5019395;28;20535;-71
2023/07/27 09:46:23;;;;;;;;;;;;;;;11.90;60.11;94732.16;5019491;28;20556;-70
2023/07/27 09:48:48;;;;;;;;;;;;;;;12.72;58.88;94730.06;5021229;28;19924;-70
2023/07/27 09:51:15;;;;;;;;;;;;;;;13.35;56.29;94727.66;5022589;28;19932;-70
2023/07/27 09:53:40;;;;;;;;;;;;;;;13.35;55.86;94729.50;5021370;28;20460;-71
2023/07/27 09:56:05;;;;;;;;;;;;;;;13.62;55.10;94729.28;5022494;28;19921;-70
2023/07/27 09:58:30;;;;;;;;;;;;;;;13.33;55.55;94734.25;5019185;28;20011;-70
2023/07/27 10:00:56;;;;;;;;;;;;;;;11.99;60.69;94734.59;5021797;28;19921;-69
2023/07/27 10:03:21;;;;;;;;;;;;;;;13.37;56.73;94733.63;5019173;28;19983;-70
2023/07/27 10:05:46;;;;;;;;;;;;;;;13.42;56.09;94731.09;5019703;28;19932;-70
2023/07/27 10:08:11;;;;;;;;;;;;;;;12.69;58.07;94740.34;5029159;28;19925;-70
2023/07/27 10:10:38;;;;;;;;;;;;;;;12.82;58.29;94728.78;5019454;28;19929;-69
2023/07/27 10:13:09;;;;;;;;;;;;;;;13.57;55.65;94719.25;5021134;28;19932;-71
2023/07/27 10:15:40;;;;;;;;;;;;;;;13.04;57.17;94723.97;5020723;28;20551;-70
2023/07/27 10:18:05;;;;;;;;;;;;;;;13.70;55.66;94726.31;5020043;28;19921;-71
2023/07/27 10:20:31;;;;;;;;;;;;;;;14.07;54.41;94715.72;5021976;28;19925;-70
2023/07/27 10:23:22;;;;;;;;;;;;;;;13.89;54.93;94718.38;5022082;28;19921;-70
2023/07/27 10:25:57;;;;;;;;;;;;;;;12.50;58.82;94719.69;5018980;28;19924;-71
2023/07/27 10:28:29;;;;;;;;;;;;;;;13.33;56.70;94719.03;5021922;28;20133;-70
2023/07/27 10:31:13;;;;;;;;;;;;;;;13.24;56.84;94723.84;5020331;28;19924;-71
2023/07/27 10:33:38;;;;;;;;;;;;;;;13.03;56.89;94717.00;5020017;28;19948;-70
2023/07/27 10:36:04;;;;;;;;;;;;;;;13.52;56.83;94732.44;5021427;28;19951;-71
2023/07/27 10:38:30;;;;;;;;;;;;;;;12.44;59.38;94715.19;5019511;28;20549;-70
2023/07/27 10:40:56;;;;;;;;;;;;;;;13.54;56.92;94720.50;5022131;28;19965;-70
2023/07/27 10:43:21;;;;;;;;;;;;;;;13.20;57.53;94725.31;5018333;28;20015;-70
2023/07/27 10:45:51;;;;;;;;;;;;;;;11.77;64.19;94729.53;5017149;28;19921;-72
2023/07/27 10:48:17;;;;;;;;;;;;;;;12.73;60.89;94720.22;5018579;28;19921;-72
2023/07/27 10:50:42;;;;;;;;;;;;;;;12.69;59.89;94721.66;5020649;28;19929;-72
2023/07/27 10:53:07;;;;;;;;;;;;;;;13.26;58.68;94713.72;5019238;28;20012;-72
2023/07/27 10:55:36;;;;;;;;;;;;;;;13.34;58.02;94709.97;5019911;28;19968;-72
2023/07/27 10:58:02;;;;;;;;;;;;;;;13.04;59.94;94715.94;5020039;28;19932;-72
2023/07/27 11:00:34;;;;;;;;;;;;;;;11.71;65.20;94719.69;5018419;28;19921;-70
2023/07/27 11:02:59;;;;;;;;;;;;;;;12.25;62.93;94720.44;5019667;28;19929;-72
2023/07/27 11:05:24;;;;;;;;;;;;;;;10.93;67.89;94714.72;5019339;28;19975;-70
2023/07/27 11:07:49;;;;;;;;;;;;;;;11.87;65.51;94708.56;5021297;28;19917;-71
2023/07/27 11:10:18;;;;;;;;;;;;;;;12.07;64.02;94705.06;5020424;28;20485;-71
2023/07/27 11:12:47;;;;;;;;;;;;;;;12.67;62.13;94706.69;5019177;28;19986;-71
2023/07/27 11:15:29;;;;;;;;;;;;;;;12.18;64.36;94703.63;5017793;28;20528;-72
2023/07/27 11:17:54;;;;;;;;;;;;;;;13.03;60.81;94692.94;5015591;28;19931;-71
2023/07/27 11:20:20;;;;;;;;;;;;;;;13.12;60.77;94698.84;5020307;28;20016;-71
2023/07/27 11:22:46;;;;;;;;;;;;;;;12.87;61.36;94703.09;5019185;28;20020;-71
2023/07/27 11:25:12;;;;;;;;;;;;;;;12.91;61.67;94695.44;5017126;28;19957;-71
2023/07/27 11:27:37;;;;;;;;;;;;;;;12.89;61.35;94705.53;5016432;28;20396;-71
2023/07/27 11:30:04;;;;;;;;;;;;;;;13.05;61.46;94697.03;5018746;28;19929;-71
2023/07/27 11:32:29;;;;;;;;;;;;;;;13.00;61.08;94699.53;5015000;28;20016;-71
2023/07/27 11:34:55;;;;;;;;;;;;;;;12.76;62.17;94698.41;5017939;28;20008;-76
2023/07/27 11:37:20;;;;;;;;;;;;;;;12.52;64.33;94698.13;5022269;28;19957;-76
2023/07/27 11:39:45;;;;;;;;;;;;;;;12.82;62.41;94702.09;5017167;28;19929;-77
2023/07/27 11:42:13;;;;;;;;;;;;;;;11.94;67.05;94697.09;5020182;28;20332;-74
2023/07/27 11:44:38;;;;;;;;;;;;;;;11.85;67.28;94699.97;5014749;28;19917;-76
2023/07/27 11:47:04;;;;;;;;;;;;;;;11.12;69.72;94691.03;5021163;28;20012;-77
2023/07/27 11:49:30;;;;;;;;;;;;;;;11.96;65.77;94684.34;5019284;28;20374;-76
2023/07/27 11:51:56;;;;;;;;;;;;;;;11.86;67.10;94695.44;5003477;28;19913;-75
2023/07/27 11:54:25;;;;;;;;;;;;;;;12.46;65.43;94693.63;5015665;28;20048;-75
2023/07/27 11:56:51;;;;;;;;;;;;;;;12.14;67.16;94691.72;4998436;28;19921;-74
2023/07/27 11:59:17;;;;;;;;;;;;;;;12.09;67.68;94697.69;4996785;28;19936;-76
2023/07/27 12:01:42;;;;;;;;;;;;;;;12.16;66.89;94692.31;4998944;28;20385;-74
2023/07/27 12:04:08;;;;;;;;;;;;;;;12.64;65.78;94692.94;5000111;28;19913;-75
2023/07/27 12:06:33;;;;;;;;;;;;;;;12.85;65.38;94681.09;5006498;28;19929;-75
2023/07/27 12:09:00;;;;;;;;;;;;;;;12.61;65.13;94682.69;4998719;28;19914;-75
2023/07/27 12:11:26;;;;;;;;;;;;;;;13.19;64.12;94675.53;5014999;28;19960;-77
2023/07/27 12:13:51;;;;;;;;;;;;;;;13.08;64.71;94679.75;5031078;28;19952;-75
2023/07/27 12:16:16;;;;;;;;;;;;;;;13.24;64.31;94691.75;4999853;28;19925;-75
2023/07/27 12:18:41;;;;;;;;;;;;;;;12.36;65.99;94684.25;4997197;28;19922;-77
2023/07/27 12:21:07;;;;;;;;;;;;;;;12.66;66.51;94685.53;5001263;28;19922;-76
2023/07/27 12:23:32;;;;;;;;;;;;;;;12.78;65.79;94680.31;5000681;28;19943;-76
2023/07/27 12:25:57;;;;;;;;;;;;;;;13.31;65.63;94678.34;5018292;28;20005;-77
2023/07/27 12:28:22;;;;;;;;;;;;;;;13.54;62.62;94666.22;5019586;28;19921;-76
2023/07/27 12:30:48;;;;;;;;;;;;;;;13.87;61.44;94674.94;5019696;28;19925;-75
2023/07/27 12:33:13;;;;;;;;;;;;;;;13.61;63.58;94675.00;5017597;28;20326;-75
2023/07/27 12:35:38;;;;;;;;;;;;;;;14.25;61.82;94676.63;5020256;28;19986;-77
2023/07/27 12:38:04;;;;;;;;;;;;;;;13.42;63.86;94674.94;5020684;28;20002;-76
2023/07/27 12:40:29;;;;;;;;;;;;;;;13.42;64.76;94674.13;5006123;28;20412;-75